createdAt,value
2023-02-03T00:02:46.354Z,98126.00
2023-02-03T00:07:47.622Z,98119.00
2023-02-03T00:12:51.880Z,98111.00
2023-02-03T00:17:52.645Z,98091.00
2023-02-03T00:22:53.432Z,98078.00
2023-02-03T00:27:54.201Z,98095.00
2023-02-03T00:32:55.024Z,98108.00
2023-02-03T00:37:56.983Z,98109.00
2023-02-03T00:42:57.750Z,98080.00
2023-02-03T00:47:58.500Z,98101.00
2023-02-03T00:52:59.322Z,98101.00
2023-02-03T00:58:00.035Z,98095.00
2023-02-03T01:03:01.333Z,98085.00
2023-02-03T01:08:02.921Z,98082.00
2023-02-03T01:13:03.759Z,98049.00
2023-02-03T01:18:04.480Z,98028.00
2023-02-03T01:23:05.249Z,98021.00
2023-02-03T01:28:06.338Z,98036.00
2023-02-03T01:33:07.203Z,98046.00
2023-02-03T01:38:08.122Z,98037.00
2023-02-03T01:43:10.463Z,98032.00
2023-02-03T01:48:11.205Z,98035.00
2023-02-03T01:53:12.373Z,98022.00
2023-02-03T01:58:28.264Z,98024.00
2023-02-03T02:03:41.750Z,98010.00
2023-02-03T02:08:47.230Z,98006.00
2023-02-03T02:13:51.342Z,98013.00
2023-02-03T02:20:05.654Z,98018.00
2023-02-03T02:26:55.561Z,98001.00
2023-02-03T02:32:18.807Z,98022.00
2023-02-03T02:38:17.766Z,98039.00
2023-02-03T02:43:31.124Z,98038.00
2023-02-03T02:48:56.618Z,98026.00
2023-02-03T02:54:02.918Z,98043.00
2023-02-03T02:59:06.569Z,98054.00
2023-02-03T03:04:11.321Z,98065.00
2023-02-03T03:09:23.704Z,98061.00
2023-02-03T03:14:30.574Z,98060.00
2023-02-03T03:19:36.533Z,98044.00
2023-02-03T03:24:43.121Z,98035.00
2023-02-03T03:29:54.021Z,98021.00
2023-02-03T03:34:55.869Z,97992.00
2023-02-03T03:39:59.041Z,97992.00
2023-02-03T03:46:25.208Z,98009.00
2023-02-03T03:51:38.463Z,98022.00
2023-02-03T03:56:49.875Z,98043.00
2023-02-03T04:01:51.863Z,98050.00
2023-02-03T04:06:54.129Z,98037.00
2023-02-03T04:12:00.999Z,98019.00
2023-02-03T04:17:01.905Z,98036.00
2023-02-03T04:22:02.646Z,98041.00
2023-02-03T04:27:05.244Z,98038.00
2023-02-03T04:32:06.364Z,98035.00
2023-02-03T04:37:07.592Z,98034.00
2023-02-03T04:42:08.369Z,98031.00
2023-02-03T04:47:09.212Z,98014.00
2023-02-03T04:52:10.541Z,98002.00
2023-02-03T04:57:11.317Z,97998.00
2023-02-03T05:02:12.049Z,98015.00
2023-02-03T05:07:12.840Z,98013.00
2023-02-03T05:12:13.889Z,98023.00
2023-02-03T05:17:14.732Z,97995.00
2023-02-03T05:22:15.600Z,97991.00
2023-02-03T05:27:16.331Z,97988.00
2023-02-03T05:32:17.094Z,98003.00
2023-02-03T05:37:17.901Z,98000.00
2023-02-03T05:42:18.658Z,97993.00
2023-02-03T05:47:19.485Z,97992.00
2023-02-03T05:52:20.343Z,98009.00
2023-02-03T05:57:21.096Z,97999.00
2023-02-03T06:02:21.848Z,97991.00
2023-02-03T06:07:22.691Z,97991.00
2023-02-03T06:12:23.519Z,97980.00
2023-02-03T06:17:24.362Z,97981.00
2023-02-03T06:22:25.115Z,97980.00
2023-02-03T06:27:26.160Z,97991.00
2023-02-03T06:32:27.209Z,97973.00
2023-02-03T06:37:27.928Z,97985.00
2023-02-03T06:42:28.690Z,97985.00
2023-02-03T06:47:29.489Z,97992.00
2023-02-03T06:52:30.266Z,97988.00
2023-02-03T06:57:31.478Z,98002.00
2023-02-03T07:02:32.650Z,98000.00
2023-02-03T07:07:34.214Z,98011.00
2023-02-03T07:12:35.987Z,98035.00
2023-02-03T07:17:36.955Z,98032.00
2023-02-03T07:22:39.964Z,98051.00
2023-02-03T07:27:40.731Z,98028.00
2023-02-03T07:32:46.507Z,98031.00
2023-02-03T07:37:47.506Z,98038.00
2023-02-03T07:42:49.284Z,98060.00
2023-02-03T07:47:50.483Z,98032.00
2023-02-03T07:52:51.635Z,98016.00
2023-02-03T07:57:53.504Z,98009.00
2023-02-03T08:02:54.292Z,98032.00
2023-02-03T08:07:55.788Z,98032.00
2023-02-03T08:12:56.674Z,98049.00
2023-02-03T08:17:58.161Z,98060.00
2023-02-03T08:22:58.912Z,98053.00
2023-02-03T08:27:59.722Z,98043.00
2023-02-03T08:33:00.770Z,98038.00
2023-02-03T08:38:01.612Z,98033.00
2023-02-03T08:43:02.765Z,98020.00
2023-02-03T08:48:03.643Z,98027.00
2023-02-03T08:53:04.618Z,98031.00
2023-02-03T08:58:05.361Z,98026.00
2023-02-03T09:03:06.298Z,98044.00
2023-02-03T09:08:07.064Z,98028.00
2023-02-03T09:13:07.792Z,98038.00
2023-02-03T09:18:08.720Z,98043.00
2023-02-03T09:23:09.482Z,98045.00
2023-02-03T09:28:10.305Z,98011.00
2023-02-03T09:33:11.165Z,98012.00
2023-02-03T09:38:11.960Z,98012.00
2023-02-03T09:43:54.694Z,98015.00
2023-02-03T09:49:02.371Z,98020.00
2023-02-03T09:54:13.398Z,98028.00
2023-02-03T09:59:14.200Z,98032.00
2023-02-03T10:04:31.398Z,98008.00
2023-02-03T10:11:34.160Z,98003.00
2023-02-03T10:16:58.433Z,97999.00
2023-02-03T10:22:01.111Z,97994.00
2023-02-03T10:27:01.885Z,97989.00
2023-02-03T10:32:08.377Z,97983.00
2023-02-03T10:39:48.393Z,97987.00
2023-02-03T10:44:59.044Z,98003.00
2023-02-03T10:50:06.623Z,97989.00
2023-02-03T10:55:30.263Z,97995.00
2023-02-03T11:00:33.562Z,98012.00
2023-02-03T11:05:34.718Z,97996.00
2023-02-03T11:10:39.364Z,98004.00
2023-02-03T11:15:54.597Z,98003.00
2023-02-03T11:20:56.789Z,98012.00
2023-02-03T11:25:57.769Z,98031.00
2023-02-03T11:30:58.604Z,98027.00
2023-02-03T11:36:01.909Z,98029.00
2023-02-03T11:41:02.663Z,98021.00
2023-02-03T11:46:07.635Z,97996.00
2023-02-03T11:51:43.059Z,97984.00
2023-02-03T11:59:48.070Z,97980.00
2023-02-03T12:05:22.539Z,97952.00
2023-02-03T12:11:09.440Z,97954.00
2023-02-03T12:16:35.129Z,97958.00
2023-02-03T12:21:44.360Z,97955.00
2023-02-03T12:27:08.672Z,97938.00
2023-02-03T12:32:34.543Z,97951.00
2023-02-03T12:39:48.281Z,97954.00
2023-02-03T12:45:00.814Z,97940.00
2023-02-03T12:50:22.513Z,97929.00
2023-02-03T12:55:45.539Z,97939.00
2023-02-03T13:00:56.739Z,97941.00
2023-02-03T13:06:24.012Z,97941.00
2023-02-03T13:12:52.162Z,97950.00
2023-02-03T13:18:10.173Z,97958.00
2023-02-03T13:23:13.621Z,97940.00
2023-02-03T13:31:09.924Z,97925.00
2023-02-03T13:40:22.341Z,97929.00
2023-02-03T13:45:39.181Z,97900.00
2023-02-03T13:50:40.564Z,97923.00
2023-02-03T13:55:45.324Z,97920.00
2023-02-03T14:01:35.062Z,97921.00
2023-02-03T14:06:58.261Z,97926.00
2023-02-03T14:15:32.385Z,97923.00
2023-02-03T14:20:39.355Z,97922.00
2023-02-03T14:25:49.048Z,97911.00
2023-02-03T14:32:53.346Z,97931.00
2023-02-03T14:38:01.396Z,97917.00
2023-02-03T14:47:13.265Z,97932.00
2023-02-03T14:53:37.172Z,97928.00
2023-02-03T14:58:47.570Z,97951.00
2023-02-03T15:04:40.555Z,97949.00
2023-02-03T15:09:45.318Z,97950.00
2023-02-03T15:14:46.113Z,97954.00
2023-02-03T15:19:46.875Z,97954.00
2023-02-03T15:24:50.240Z,97959.00
2023-02-03T15:29:51.534Z,97956.00
2023-02-03T15:34:52.773Z,97964.00
2023-02-03T15:40:09.080Z,97978.00
2023-02-03T15:45:37.075Z,97974.00
2023-02-03T15:50:49.775Z,97966.00
2023-02-03T15:55:55.340Z,97952.00
2023-02-03T16:00:59.587Z,97944.00
2023-02-03T16:07:52.194Z,97957.00
2023-02-03T16:12:53.197Z,97981.00
2023-02-03T16:17:56.636Z,97990.00
2023-02-03T16:23:19.068Z,97985.00
2023-02-03T16:28:39.487Z,97998.00
2023-02-03T16:34:03.881Z,98004.00
2023-02-03T16:39:28.370Z,98026.00
2023-02-03T16:44:47.718Z,98021.00
2023-02-03T16:50:06.928Z,98024.00
2023-02-03T16:55:08.485Z,98031.00
2023-02-03T17:00:12.846Z,98047.00
2023-02-03T17:05:13.617Z,98039.00
2023-02-03T17:10:14.947Z,98038.00
2023-02-03T17:15:15.923Z,98047.00
2023-02-03T17:20:16.833Z,98047.00
2023-02-03T17:25:17.584Z,98053.00
2023-02-03T17:30:18.513Z,98054.00
2023-02-03T17:35:19.308Z,98053.00
2023-02-03T17:57:19.673Z,98064.00
2023-02-03T18:02:21.629Z,98065.00
2023-02-03T18:07:22.470Z,98063.00
2023-02-03T18:12:23.490Z,98063.00
2023-02-03T18:17:24.389Z,98071.00
2023-02-03T18:22:25.131Z,98084.00
2023-02-03T18:27:30.512Z,98082.00
2023-02-03T18:32:32.881Z,98088.00
2023-02-03T18:37:33.616Z,98098.00
2023-02-03T18:42:34.600Z,98098.00
2023-02-03T18:47:37.034Z,98104.00
2023-02-03T18:52:37.806Z,98113.00
2023-02-03T18:57:38.964Z,98112.00
2023-02-03T19:02:40.444Z,98130.00
2023-02-03T19:07:43.247Z,98135.00
2023-02-03T19:12:44.339Z,98127.00
2023-02-03T19:17:45.338Z,98148.00
2023-02-03T19:22:46.103Z,98158.00
2023-02-03T19:27:47.647Z,98162.00
2023-02-03T19:32:48.412Z,98182.00
2023-02-03T19:37:49.400Z,98181.00
2023-02-03T19:42:50.140Z,98184.00
2023-02-03T19:47:51.077Z,98198.00
2023-02-03T19:52:51.862Z,98197.00
2023-02-03T19:57:52.892Z,98206.00
2023-02-03T20:02:54.053Z,98207.00
2023-02-03T20:07:55.187Z,98205.00
2023-02-03T20:12:55.970Z,98221.00
2023-02-03T20:17:57.442Z,98216.00
2023-02-03T20:22:58.381Z,98216.00
2023-02-03T20:28:01.725Z,98226.00
2023-02-03T20:33:03.966Z,98218.00
2023-02-03T20:38:04.743Z,98209.00
2023-02-03T20:43:19.580Z,98209.00
2023-02-03T20:48:23.040Z,98218.00
2023-02-03T20:53:25.294Z,98223.00
2023-02-03T20:58:31.279Z,98221.00
2023-02-03T21:03:50.367Z,98222.00
2023-02-03T21:08:51.189Z,98231.00
2023-02-03T21:13:52.681Z,98230.00
2023-02-03T21:18:56.102Z,98232.00
2023-02-03T21:23:57.093Z,98239.00
2023-02-03T21:28:59.897Z,98258.00
2023-02-03T21:34:03.292Z,98247.00
2023-02-03T21:39:24.143Z,98244.00
2023-02-03T21:44:32.063Z,98248.00
2023-02-03T21:49:34.677Z,98254.00
2023-02-03T21:54:40.829Z,98254.00
2023-02-03T21:59:45.846Z,98252.00
2023-02-03T22:04:46.558Z,98267.00
2023-02-03T22:09:49.481Z,98267.00
2023-02-03T22:14:50.212Z,98274.00
2023-02-03T22:19:51.133Z,98271.00
2023-02-03T22:24:51.843Z,98264.00
2023-02-03T22:29:55.630Z,98271.00
2023-02-03T22:34:56.417Z,98273.00
2023-02-03T22:39:57.766Z,98283.00
2023-02-03T22:44:58.516Z,98281.00
2023-02-03T22:49:59.527Z,98281.00
2023-02-03T22:55:00.249Z,98280.00
2023-02-03T23:00:01.216Z,98292.00
2023-02-03T23:05:02.073Z,98284.00
2023-02-03T23:10:04.380Z,98288.00
2023-02-03T23:15:05.713Z,98290.00
2023-02-03T23:20:08.880Z,98289.00
2023-02-03T23:25:11.135Z,98301.00
2023-02-03T23:30:13.334Z,98325.00
2023-02-03T23:35:32.255Z,98309.00
2023-02-03T23:40:33.435Z,98325.00
2023-02-03T23:45:34.266Z,98343.00
2023-02-03T23:50:35.357Z,98337.00
2023-02-03T23:55:36.080Z,98337.00
